createdAt,value
2022-09-07T00:00:14.038Z,8.48
2022-09-07T00:03:19.472Z,7.38
2022-09-07T00:06:22.474Z,7.37
2022-09-07T00:09:25.090Z,6.40
2022-09-07T00:12:27.833Z,6.75
2022-09-07T00:15:30.455Z,7.45
2022-09-07T00:18:33.462Z,7.82
2022-09-07T00:21:37.009Z,6.77
2022-09-07T00:24:39.794Z,6.82
2022-09-07T00:27:42.324Z,6.68
2022-09-07T00:30:45.077Z,7.07
2022-09-07T00:33:49.288Z,7.10
2022-09-07T00:36:51.875Z,6.63
2022-09-07T00:39:54.759Z,7.45
2022-09-07T00:42:57.309Z,7.93
2022-09-07T00:46:01.105Z,7.22
2022-09-07T00:49:10.381Z,6.75
2022-09-07T00:52:16.110Z,6.53
2022-09-07T00:55:19.782Z,7.20
2022-09-07T00:58:23.843Z,6.82
2022-09-07T01:01:28.312Z,7.78
2022-09-07T01:04:33.064Z,6.32
2022-09-07T01:07:37.624Z,7.80
2022-09-07T01:10:40.513Z,6.68
2022-09-07T01:13:44.919Z,7.50
2022-09-07T01:17:02.405Z,6.25
2022-09-07T01:20:30.054Z,6.90
2022-09-07T01:24:13.774Z,6.80
2022-09-07T01:27:35.135Z,7.18
2022-09-07T01:30:42.837Z,7.05
2022-09-07T01:33:51.180Z,7.13
2022-09-07T01:37:21.494Z,7.10
2022-09-07T01:40:42.264Z,8.63
2022-09-07T01:43:51.407Z,7.43
2022-09-07T01:47:09.401Z,6.72
2022-09-07T01:50:17.866Z,6.85
2022-09-07T01:53:35.892Z,6.47
2022-09-07T01:56:43.632Z,8.47
2022-09-07T01:59:55.917Z,8.88
2022-09-07T02:03:13.230Z,7.13
2022-09-07T02:06:37.561Z,6.72
2022-09-07T02:09:54.851Z,7.65
2022-09-07T02:13:18.177Z,6.87
2022-09-07T02:16:31.475Z,7.90
2022-09-07T02:19:40.950Z,7.65
2022-09-07T02:22:49.394Z,7.22
2022-09-07T02:25:57.367Z,7.55
2022-09-07T02:29:00.877Z,7.40
2022-09-07T02:32:03.986Z,6.80
2022-09-07T02:35:07.622Z,8.40
2022-09-07T02:38:10.641Z,6.03
2022-09-07T02:41:34.114Z,6.88
2022-09-07T02:44:39.762Z,7.63
2022-09-07T02:48:00.711Z,6.20
2022-09-07T02:51:15.262Z,6.05
2022-09-07T02:54:37.641Z,5.90
2022-09-07T02:57:56.763Z,6.78
2022-09-07T03:01:08.676Z,6.77
2022-09-07T03:04:17.341Z,6.82
2022-09-07T03:07:24.647Z,6.18
2022-09-07T03:10:28.984Z,6.15
2022-09-07T03:13:31.622Z,6.30
2022-09-07T03:16:34.118Z,7.10
2022-09-07T03:19:36.813Z,6.53
2022-09-07T03:22:39.867Z,6.03
2022-09-07T03:25:42.413Z,7.45
2022-09-07T03:28:45.320Z,7.13
2022-09-07T03:31:47.977Z,6.67
2022-09-07T03:34:51.997Z,6.28
2022-09-07T03:37:54.843Z,6.50
2022-09-07T03:40:59.577Z,6.45
2022-09-07T03:44:07.853Z,6.72
2022-09-07T03:47:10.564Z,6.87
2022-09-07T03:50:13.320Z,6.38
2022-09-07T03:53:15.865Z,7.60
2022-09-07T03:56:21.384Z,6.63
2022-09-07T03:59:24.046Z,7.78
2022-09-07T04:02:26.702Z,6.93
2022-09-07T04:05:29.291Z,6.60
2022-09-07T04:08:34.860Z,6.82
2022-09-07T04:11:38.131Z,6.45
2022-09-07T04:14:40.659Z,5.88
2022-09-07T04:17:44.141Z,6.80
2022-09-07T04:20:46.859Z,6.28
2022-09-07T04:23:50.275Z,6.13
2022-09-07T04:26:52.828Z,5.43
2022-09-07T04:29:55.594Z,5.57
2022-09-07T04:32:58.131Z,6.73
2022-09-07T04:36:01.437Z,7.40
2022-09-07T04:39:05.518Z,6.43
2022-09-07T04:42:08.073Z,7.03
2022-09-07T04:45:11.072Z,6.53
2022-09-07T04:48:13.682Z,5.90
2022-09-07T04:51:17.098Z,5.95
2022-09-07T04:54:19.570Z,7.53
2022-09-07T04:57:24.697Z,6.00
2022-09-07T05:00:27.340Z,5.63
2022-09-07T05:03:31.401Z,5.87
2022-09-07T05:06:34.715Z,6.68
2022-09-07T05:09:38.342Z,6.57
2022-09-07T05:12:40.995Z,6.68
2022-09-07T05:15:43.538Z,5.50
2022-09-07T05:18:53.344Z,5.63
2022-09-07T05:21:57.535Z,6.30
2022-09-07T05:25:03.917Z,5.82
2022-09-07T05:28:06.478Z,7.45
2022-09-07T05:31:19.645Z,8.45
2022-09-07T05:37:28.828Z,7.03
2022-09-07T05:40:35.125Z,6.70
2022-09-07T05:47:05.788Z,8.35
2022-09-07T05:50:09.918Z,5.80
2022-09-07T05:53:12.413Z,7.47
2022-09-07T05:56:15.302Z,6.97
2022-09-07T05:59:20.759Z,7.53
2022-09-07T06:02:23.367Z,6.30
2022-09-07T06:05:26.070Z,7.73
2022-09-07T06:08:31.435Z,6.88
2022-09-07T06:11:36.503Z,7.55
2022-09-07T06:14:40.145Z,8.00
2022-09-07T06:17:43.424Z,6.07
2022-09-07T06:20:46.167Z,6.33
2022-09-07T06:23:50.636Z,6.15
2022-09-07T06:26:53.332Z,7.57
2022-09-07T06:29:58.031Z,7.63
2022-09-07T06:33:00.937Z,6.75
2022-09-07T06:36:06.146Z,7.57
2022-09-07T06:39:09.742Z,7.07
2022-09-07T06:42:13.078Z,7.20
2022-09-07T06:45:20.914Z,5.63
2022-09-07T06:48:24.058Z,6.90
2022-09-07T06:51:27.051Z,6.97
2022-09-07T06:57:53.662Z,7.70
2022-09-07T07:00:56.800Z,9.82
2022-09-07T07:04:01.639Z,6.80
2022-09-07T07:07:04.586Z,7.50
2022-09-07T07:10:07.573Z,8.63
2022-09-07T07:13:13.112Z,7.72
2022-09-07T07:16:17.428Z,7.22
2022-09-07T07:19:20.813Z,9.52
2022-09-07T07:22:45.564Z,7.70
2022-09-07T07:25:46.079Z,9.13
2022-09-07T07:29:06.292Z,10.98
2022-09-07T07:32:09.330Z,9.40
2022-09-07T07:35:14.372Z,10.30
2022-09-07T07:42:03.186Z,7.72
2022-09-07T07:48:50.971Z,8.35
2022-09-07T07:58:47.494Z,10.13
2022-09-07T08:01:53.878Z,9.48
2022-09-07T08:04:57.806Z,9.80
2022-09-07T08:08:01.434Z,9.48
2022-09-07T08:11:08.445Z,9.10
2022-09-07T08:14:12.015Z,9.63
2022-09-07T08:17:18.022Z,8.32
2022-09-07T08:20:21.140Z,8.82
2022-09-07T08:23:23.688Z,9.10
2022-09-07T08:26:27.423Z,9.27
2022-09-07T08:29:34.632Z,8.07
2022-09-07T08:32:38.092Z,11.15
2022-09-07T08:35:41.184Z,8.43
2022-09-07T08:38:45.276Z,10.25
2022-09-07T08:42:34.487Z,8.10
2022-09-07T08:45:48.952Z,9.18
2022-09-07T08:48:54.107Z,7.93
2022-09-07T08:52:11.388Z,10.63
2022-09-07T08:55:27.847Z,12.43
2022-09-07T08:58:50.572Z,12.27
2022-09-07T09:05:33.392Z,10.93
2022-09-07T09:09:13.752Z,9.65
2022-09-07T09:12:20.889Z,12.35
2022-09-07T09:15:34.013Z,10.37
2022-09-07T09:18:45.876Z,9.63
2022-09-07T09:21:48.586Z,11.38
2022-09-07T09:24:57.071Z,9.40
2022-09-07T09:28:01.174Z,11.70
2022-09-07T09:31:12.354Z,13.40
2022-09-07T09:34:17.823Z,9.77
2022-09-07T09:37:34.410Z,9.15
2022-09-07T09:40:37.502Z,9.00
2022-09-07T09:43:55.144Z,11.65
2022-09-07T09:54:33.647Z,10.27
2022-09-07T10:01:31.065Z,11.00
2022-09-07T10:04:35.314Z,10.50
2022-09-07T10:07:37.854Z,10.77
2022-09-07T10:10:55.607Z,9.77
2022-09-07T10:14:00.517Z,11.33
2022-09-07T10:17:18.047Z,13.02
2022-09-07T10:20:32.198Z,33.20
2022-09-07T10:23:36.935Z,21.73
2022-09-07T10:26:44.497Z,14.00
2022-09-07T10:29:48.685Z,15.33
2022-09-07T10:32:59.516Z,14.98
2022-09-07T10:36:24.284Z,12.85
2022-09-07T10:40:00.535Z,15.73
2022-09-07T10:43:28.110Z,11.82
2022-09-07T10:46:58.547Z,12.17
2022-09-07T10:50:24.997Z,10.95
2022-09-07T10:53:46.613Z,11.48
2022-09-07T10:57:17.350Z,11.55
2022-09-07T11:00:25.830Z,17.40
2022-09-07T11:03:59.015Z,12.77
2022-09-07T11:07:20.280Z,12.65
2022-09-07T11:10:47.786Z,14.55
2022-09-07T11:14:11.920Z,9.80
2022-09-07T11:17:18.868Z,12.23
2022-09-07T11:20:21.557Z,11.83
2022-09-07T11:23:30.062Z,9.35
2022-09-07T11:26:40.980Z,10.25
2022-09-07T11:29:52.740Z,10.18
2022-09-07T11:33:03.305Z,11.38
2022-09-07T11:36:12.810Z,11.67
2022-09-07T11:39:39.993Z,10.45
2022-09-07T11:43:19.004Z,18.25
2022-09-07T11:46:37.294Z,23.95
2022-09-07T11:49:41.222Z,17.75
2022-09-07T11:52:54.859Z,16.87
2022-09-07T11:56:07.897Z,13.20
2022-09-07T11:59:41.881Z,14.07
2022-09-07T12:03:11.972Z,14.35
2022-09-07T12:06:27.339Z,13.63
2022-09-07T12:09:39.446Z,14.77
2022-09-07T12:13:21.912Z,18.83
2022-09-07T12:17:02.110Z,12.18
2022-09-07T12:20:18.324Z,12.07
2022-09-07T12:23:30.474Z,10.77
2022-09-07T12:26:33.305Z,11.43
2022-09-07T12:29:36.391Z,11.73
2022-09-07T12:32:57.085Z,11.10
2022-09-07T12:36:02.167Z,10.48
2022-09-07T12:39:28.619Z,10.00
2022-09-07T12:42:39.895Z,9.50
2022-09-07T12:45:56.568Z,9.18
2022-09-07T12:49:20.159Z,10.82
2022-09-07T12:52:31.946Z,10.00
2022-09-07T12:59:45.335Z,10.73
2022-09-07T13:07:05.050Z,14.25
2022-09-07T13:10:36.057Z,12.55
2022-09-07T13:14:09.563Z,12.60
2022-09-07T13:17:33.051Z,9.27
2022-09-07T13:20:39.853Z,10.80
2022-09-07T13:27:47.525Z,9.88
2022-09-07T13:31:08.460Z,10.60
2022-09-07T13:34:40.105Z,13.50
2022-09-07T13:37:52.675Z,10.07
2022-09-07T13:41:04.213Z,10.65
2022-09-07T13:44:14.346Z,9.45
2022-09-07T13:47:31.575Z,8.93
2022-09-07T13:50:53.711Z,8.80
2022-09-07T13:53:56.283Z,10.02
2022-09-07T13:57:26.971Z,11.20
2022-09-07T14:00:31.071Z,9.75
2022-09-07T14:03:54.831Z,11.30
2022-09-07T14:07:14.035Z,8.90
2022-09-07T14:10:25.157Z,11.07
2022-09-07T14:13:27.797Z,9.68
2022-09-07T14:16:31.024Z,9.68
2022-09-07T14:19:42.719Z,10.00
2022-09-07T14:22:48.341Z,8.07
2022-09-07T14:26:19.281Z,9.38
2022-09-07T14:29:30.234Z,9.90
2022-09-07T14:32:32.761Z,9.77
2022-09-07T14:35:38.743Z,7.78
2022-09-07T14:42:04.669Z,9.93
2022-09-07T14:45:39.667Z,8.95
2022-09-07T14:48:45.398Z,9.82
2022-09-07T14:51:49.033Z,7.90
2022-09-07T14:54:53.058Z,9.93
2022-09-07T14:58:30.794Z,9.77
2022-09-07T15:01:40.727Z,9.63
2022-09-07T15:04:44.066Z,9.57
2022-09-07T15:07:47.856Z,7.63
2022-09-07T15:14:25.647Z,9.88
2022-09-07T15:17:48.136Z,12.98
2022-09-07T15:20:50.860Z,12.15
2022-09-07T15:23:55.671Z,9.63
2022-09-07T15:27:05.699Z,11.37
2022-09-07T15:30:11.391Z,11.43
2022-09-07T15:33:13.880Z,11.85
2022-09-07T15:36:17.068Z,12.32
2022-09-07T15:39:22.687Z,10.10
2022-09-07T15:45:51.277Z,10.57
2022-09-07T15:48:56.125Z,10.50
2022-09-07T15:52:06.479Z,12.50
2022-09-07T15:55:09.457Z,10.23
2022-09-07T15:58:13.114Z,11.13
2022-09-07T16:04:38.839Z,11.18
2022-09-07T16:11:24.871Z,9.13
2022-09-07T16:14:27.315Z,10.13
2022-09-07T16:17:35.646Z,10.20
2022-09-07T16:20:42.079Z,9.75
2022-09-07T16:23:48.039Z,10.23
2022-09-07T16:26:50.642Z,10.00
2022-09-07T16:29:53.237Z,8.97
2022-09-07T16:32:56.081Z,9.73
2022-09-07T16:36:05.130Z,8.55
2022-09-07T16:39:07.705Z,9.63
2022-09-07T16:42:10.213Z,8.98
2022-09-07T16:48:36.936Z,9.43
2022-09-07T16:51:39.926Z,10.77
2022-09-07T16:54:42.583Z,8.25
2022-09-07T17:01:09.685Z,9.13
2022-09-07T17:04:12.664Z,11.45
2022-09-07T17:07:15.186Z,9.20
2022-09-07T17:10:17.747Z,9.50
2022-09-07T17:13:20.397Z,8.60
2022-09-07T17:16:26.065Z,9.27
2022-09-07T17:19:30.064Z,10.20
2022-09-07T17:22:32.866Z,9.50
2022-09-07T17:25:35.680Z,8.80
2022-09-07T17:28:46.273Z,10.07
2022-09-07T17:35:11.506Z,8.35
2022-09-07T17:41:36.769Z,9.52
2022-09-07T17:44:39.511Z,11.38
2022-09-07T17:47:42.243Z,8.23
2022-09-07T17:50:44.903Z,8.40
2022-09-07T17:53:47.797Z,8.10
2022-09-07T17:56:50.540Z,8.00
2022-09-07T18:03:16.188Z,7.50
2022-09-07T18:06:20.109Z,9.50
2022-09-07T18:09:57.882Z,8.30
2022-09-07T18:13:03.490Z,9.65
2022-09-07T18:16:16.651Z,8.38
2022-09-07T18:19:19.711Z,8.90
2022-09-07T18:22:23.672Z,8.10
2022-09-07T18:25:26.850Z,8.35
2022-09-07T18:31:54.174Z,8.52
2022-09-07T18:34:57.191Z,8.93
2022-09-07T18:38:01.584Z,9.38
2022-09-07T18:41:10.450Z,9.43
2022-09-07T18:47:36.686Z,8.50
2022-09-07T18:50:39.557Z,8.80
2022-09-07T18:53:43.851Z,7.55
2022-09-07T18:56:46.883Z,9.82
2022-09-07T18:59:49.884Z,8.43
2022-09-07T19:02:52.999Z,8.45
2022-09-07T19:06:00.624Z,7.87
2022-09-07T19:09:05.161Z,8.52
2022-09-07T19:12:08.216Z,7.65
2022-09-07T19:15:11.740Z,8.13
2022-09-07T19:18:14.674Z,8.82
2022-09-07T19:21:21.500Z,8.00
2022-09-07T19:24:24.474Z,8.57
2022-09-07T19:27:27.675Z,8.20
2022-09-07T19:30:30.879Z,7.43
2022-09-07T19:33:35.668Z,7.63
2022-09-07T19:36:39.045Z,7.63
2022-09-07T19:39:41.736Z,7.50
2022-09-07T19:42:45.363Z,8.23
2022-09-07T19:45:48.339Z,7.43
2022-09-07T19:48:51.649Z,7.57
2022-09-07T19:51:54.810Z,8.03
2022-09-07T19:55:00.710Z,7.63
2022-09-07T19:58:03.622Z,7.53
2022-09-07T20:01:08.906Z,8.27
2022-09-07T20:04:19.849Z,8.60
2022-09-07T20:07:23.629Z,9.20
2022-09-07T20:10:26.649Z,7.20
2022-09-07T20:13:31.328Z,8.55
2022-09-07T20:16:38.558Z,8.18
2022-09-07T20:19:41.647Z,8.30
2022-09-07T20:22:44.609Z,8.30
2022-09-07T20:26:01.957Z,8.10
2022-09-07T20:29:26.708Z,7.75
2022-09-07T20:32:28.367Z,7.45
2022-09-07T20:35:31.614Z,7.65
2022-09-07T20:38:47.444Z,7.57
2022-09-07T20:41:50.224Z,8.52
2022-09-07T20:44:53.560Z,8.63
2022-09-07T20:47:56.378Z,9.00
2022-09-07T20:51:01.525Z,12.43
2022-09-07T20:54:04.102Z,7.83
2022-09-07T20:57:06.565Z,9.23
2022-09-07T21:00:09.576Z,6.85
2022-09-07T21:03:12.273Z,7.80
2022-09-07T21:06:15.931Z,7.43
2022-09-07T21:09:19.184Z,8.07
2022-09-07T21:12:21.688Z,8.18
2022-09-07T21:15:24.385Z,7.60
2022-09-07T21:18:27.049Z,7.78
2022-09-07T21:21:38.365Z,8.60
2022-09-07T21:24:41.729Z,8.10
2022-09-07T21:27:44.276Z,8.68
2022-09-07T21:31:02.849Z,9.38
2022-09-07T21:34:05.398Z,7.45
2022-09-07T21:37:08.551Z,7.10
2022-09-07T21:40:11.802Z,7.60
2022-09-07T21:43:16.722Z,7.45
2022-09-07T21:46:19.559Z,7.78
2022-09-07T21:49:22.190Z,7.75
2022-09-07T21:52:25.106Z,7.45
2022-09-07T21:55:27.638Z,6.60
2022-09-07T21:58:30.413Z,8.25
2022-09-07T22:01:33.074Z,8.48
2022-09-07T22:04:35.690Z,8.02
2022-09-07T22:07:38.156Z,8.02
2022-09-07T22:10:41.769Z,8.10
2022-09-07T22:13:44.879Z,7.80
2022-09-07T22:16:47.449Z,7.82
2022-09-07T22:19:50.039Z,7.93
2022-09-07T22:22:52.516Z,7.68
2022-09-07T22:25:55.452Z,7.77
2022-09-07T22:28:58.765Z,7.70
2022-09-07T22:32:01.521Z,7.15
2022-09-07T22:35:04.232Z,7.53
2022-09-07T22:38:07.465Z,6.80
2022-09-07T22:41:18.752Z,7.03
2022-09-07T22:44:21.632Z,7.60
2022-09-07T22:47:24.680Z,7.68
2022-09-07T22:50:27.139Z,7.63
2022-09-07T22:53:32.443Z,6.70
2022-09-07T22:56:35.539Z,7.63
2022-09-07T22:59:37.997Z,7.80
2022-09-07T23:02:40.667Z,7.05
2022-09-07T23:05:43.150Z,7.53
2022-09-07T23:08:45.626Z,8.13
2022-09-07T23:11:48.344Z,7.33
2022-09-07T23:14:50.818Z,7.22
2022-09-07T23:17:53.308Z,6.78
2022-09-07T23:21:00.521Z,7.65
2022-09-07T23:24:03.402Z,6.45
2022-09-07T23:27:06.757Z,6.87
2022-09-07T23:30:11.306Z,7.03
2022-09-07T23:33:14.206Z,7.22
2022-09-07T23:36:17.694Z,7.95
2022-09-07T23:39:20.280Z,7.63
2022-09-07T23:42:22.813Z,6.43
2022-09-07T23:45:25.330Z,7.30
2022-09-07T23:48:28.392Z,7.28
2022-09-07T23:51:30.881Z,7.63
2022-09-07T23:54:33.413Z,6.65
2022-09-07T23:57:35.987Z,7.47
